createdAt,value
2023-09-16T00:01:56.149Z,14.22
2023-09-16T00:04:32.585Z,14.35
2023-09-16T00:07:01.934Z,14.30
2023-09-16T00:09:28.665Z,14.33
2023-09-16T00:12:14.329Z,14.38
2023-09-16T00:14:46.233Z,14.50
2023-09-16T00:17:12.939Z,14.48
2023-09-16T00:19:39.984Z,14.41
2023-09-16T00:22:13.277Z,14.38
2023-09-16T00:24:41.815Z,14.41
2023-09-16T00:27:08.763Z,14.40
2023-09-16T00:29:35.737Z,14.41
2023-09-16T00:32:05.330Z,14.57
2023-09-16T00:34:35.617Z,14.63
2023-09-16T00:37:02.691Z,14.64
2023-09-16T00:39:29.652Z,14.60
2023-09-16T00:42:02.308Z,14.89
2023-09-16T00:44:29.378Z,14.90
2023-09-16T00:46:56.269Z,14.80
2023-09-16T00:49:37.865Z,15.01
2023-09-16T00:52:04.988Z,15.07
2023-09-16T00:54:31.950Z,14.85
2023-09-16T00:57:08.587Z,14.95
2023-09-16T00:59:36.445Z,15.13
2023-09-16T01:02:04.010Z,14.89
2023-09-16T01:04:32.764Z,14.91
2023-09-16T01:07:03.900Z,14.81
2023-09-16T01:09:30.937Z,14.78
2023-09-16T01:11:57.885Z,14.86
2023-09-16T01:14:25.173Z,14.86
2023-09-16T01:16:55.283Z,14.83
2023-09-16T01:19:21.975Z,15.44
2023-09-16T01:21:58.951Z,15.58
2023-09-16T01:24:25.763Z,15.55
2023-09-16T01:26:53.689Z,15.75
2023-09-16T01:29:23.408Z,16.02
2023-09-16T01:31:57.958Z,16.04
2023-09-16T01:34:43.133Z,16.05
2023-09-16T01:37:22.726Z,16.07
2023-09-16T01:39:59.613Z,16.13
2023-09-16T01:42:30.585Z,16.06
2023-09-16T01:44:57.406Z,16.10
2023-09-16T01:47:24.225Z,16.38
2023-09-16T01:49:51.040Z,16.15
2023-09-16T01:52:17.919Z,16.42
2023-09-16T01:54:44.657Z,16.35
2023-09-16T01:57:19.826Z,16.45
2023-09-16T01:59:46.550Z,16.36
2023-09-16T02:02:13.299Z,16.14
2023-09-16T02:04:45.475Z,16.09
2023-09-16T02:07:13.466Z,16.01
2023-09-16T02:09:42.136Z,16.21
2023-09-16T02:12:18.258Z,16.47
2023-09-16T02:14:45.115Z,16.61
2023-09-16T02:17:12.016Z,16.45
2023-09-16T02:19:51.452Z,16.33
2023-09-16T02:22:18.362Z,16.26
2023-09-16T02:24:45.290Z,16.30
2023-09-16T02:27:20.921Z,16.41
2023-09-16T02:29:49.407Z,16.37
2023-09-16T02:32:16.168Z,16.48
2023-09-16T02:34:50.758Z,16.34
2023-09-16T02:37:21.648Z,16.13
2023-09-16T02:39:48.627Z,16.38
2023-09-16T02:42:19.391Z,16.21
2023-09-16T02:44:46.258Z,16.32
2023-09-16T02:47:12.963Z,16.54
2023-09-16T02:49:39.986Z,16.29
2023-09-16T02:52:06.942Z,16.55
2023-09-16T02:54:41.107Z,16.45
2023-09-16T02:57:07.837Z,16.60
2023-09-16T02:59:34.820Z,16.43
2023-09-16T03:02:07.081Z,16.52
2023-09-16T03:04:37.966Z,16.32
2023-09-16T03:07:04.837Z,16.22
2023-09-16T03:09:32.153Z,16.24
2023-09-16T03:11:59.075Z,16.34
2023-09-16T03:14:25.869Z,16.35
2023-09-16T03:16:53.285Z,16.41
2023-09-16T03:19:26.360Z,16.58
2023-09-16T03:22:01.874Z,16.46
2023-09-16T03:24:29.540Z,16.40
2023-09-16T03:26:56.361Z,16.61
2023-09-16T03:29:31.917Z,16.54
2023-09-16T03:32:01.375Z,16.47
2023-09-16T03:34:28.577Z,16.54
2023-09-16T03:37:01.808Z,16.60
2023-09-16T03:39:28.682Z,16.49
2023-09-16T03:41:56.261Z,16.59
2023-09-16T03:44:32.620Z,16.66
2023-09-16T03:46:59.371Z,16.72
2023-09-16T03:49:26.344Z,16.71
2023-09-16T03:52:07.074Z,16.68
2023-09-16T03:54:33.969Z,16.55
2023-09-16T03:57:01.565Z,16.63
2023-09-16T03:59:31.623Z,16.60
2023-09-16T04:01:58.385Z,16.67
2023-09-16T04:04:28.502Z,16.72
2023-09-16T04:07:05.852Z,16.72
2023-09-16T04:09:33.710Z,16.55
2023-09-16T04:12:00.394Z,16.61
2023-09-16T04:14:37.410Z,16.56
2023-09-16T04:17:05.509Z,16.65
2023-09-16T04:19:32.397Z,16.59
2023-09-16T04:22:19.367Z,16.54
2023-09-16T04:24:55.485Z,16.63
2023-09-16T04:27:22.736Z,16.63
2023-09-16T04:29:49.631Z,16.50
2023-09-16T04:32:23.878Z,16.54
2023-09-16T04:34:50.970Z,16.63
2023-09-16T04:37:17.899Z,16.66
2023-09-16T04:39:45.692Z,16.68
2023-09-16T04:42:12.498Z,16.61
2023-09-16T04:44:39.964Z,16.54
2023-09-16T04:47:08.733Z,16.64
2023-09-16T04:49:35.660Z,16.51
2023-09-16T04:52:14.343Z,16.44
2023-09-16T04:54:42.199Z,16.53
2023-09-16T04:57:09.128Z,16.47
2023-09-16T04:59:38.206Z,16.39
2023-09-16T05:02:06.034Z,16.42
2023-09-16T05:04:32.888Z,16.58
2023-09-16T05:06:59.965Z,16.59
2023-09-16T05:09:27.155Z,16.40
2023-09-16T05:12:01.057Z,16.80
2023-09-16T05:14:31.019Z,16.55
2023-09-16T05:16:58.939Z,16.37
2023-09-16T05:19:34.879Z,16.37
2023-09-16T05:22:04.516Z,16.63
2023-09-16T05:24:32.782Z,16.59
2023-09-16T05:27:02.820Z,16.69
2023-09-16T05:29:29.895Z,16.69
2023-09-16T05:32:00.641Z,16.65
2023-09-16T05:34:33.986Z,16.69
2023-09-16T05:37:00.756Z,16.59
2023-09-16T05:39:27.720Z,16.61
2023-09-16T05:41:56.472Z,16.63
2023-09-16T05:44:26.484Z,16.79
2023-09-16T05:46:59.108Z,16.72
2023-09-16T05:50:16.763Z,16.85
2023-09-16T05:52:46.962Z,16.71
2023-09-16T05:55:13.987Z,16.68
2023-09-16T05:57:50.451Z,16.72
2023-09-16T06:00:17.623Z,16.70
2023-09-16T06:02:44.430Z,16.90
2023-09-16T06:05:21.392Z,16.95
2023-09-16T06:07:48.196Z,16.91
2023-09-16T06:10:16.014Z,16.78
2023-09-16T06:12:50.760Z,16.81
2023-09-16T06:15:18.074Z,16.79
2023-09-16T06:17:49.238Z,16.88
2023-09-16T06:20:20.716Z,17.03
2023-09-16T06:22:47.591Z,16.98
2023-09-16T06:25:15.712Z,17.04
2023-09-16T06:28:05.278Z,17.08
2023-09-16T06:30:34.116Z,17.05
2023-09-16T06:33:01.134Z,17.12
2023-09-16T06:35:28.091Z,17.21
2023-09-16T06:37:55.155Z,17.16
2023-09-16T06:40:22.162Z,17.37
2023-09-16T06:42:59.403Z,17.37
2023-09-16T06:45:39.656Z,17.43
2023-09-16T06:51:27.677Z,17.65
2023-09-16T06:53:54.440Z,17.67
2023-09-16T06:56:59.502Z,17.86
2023-09-16T06:59:26.177Z,17.75
2023-09-16T07:02:03.258Z,17.82
2023-09-16T07:04:30.037Z,17.80
2023-09-16T07:06:57.033Z,17.89
2023-09-16T07:09:31.666Z,18.12
2023-09-16T07:12:00.607Z,17.95
2023-09-16T07:14:27.292Z,17.93
2023-09-16T07:17:04.361Z,18.26
2023-09-16T07:19:31.142Z,18.16
2023-09-16T07:21:57.806Z,18.13
2023-09-16T07:24:34.932Z,18.24
2023-09-16T07:27:27.736Z,18.34
2023-09-16T07:29:54.696Z,18.36
2023-09-16T07:32:21.370Z,18.68
2023-09-16T07:34:51.315Z,18.85
2023-09-16T07:37:34.189Z,18.90
2023-09-16T07:40:01.031Z,18.94
2023-09-16T07:42:27.777Z,19.00
2023-09-16T07:45:06.461Z,19.24
2023-09-16T07:47:48.612Z,19.20
2023-09-16T07:50:17.650Z,19.10
2023-09-16T07:52:50.616Z,19.38
2023-09-16T07:55:26.997Z,19.34
2023-09-16T07:57:53.733Z,19.62
2023-09-16T08:00:25.203Z,19.75
2023-09-16T08:02:52.206Z,19.70
2023-09-16T08:05:22.286Z,19.51
2023-09-16T08:08:15.259Z,19.81
2023-09-16T08:10:47.485Z,19.60
2023-09-16T08:13:14.285Z,19.58
2023-09-16T08:15:52.929Z,19.44
2023-09-16T08:18:19.885Z,19.36
2023-09-16T08:20:46.767Z,19.78
2023-09-16T08:23:20.875Z,19.98
2023-09-16T08:25:49.991Z,19.74
2023-09-16T08:28:16.819Z,19.71
2023-09-16T08:30:50.985Z,19.65
2023-09-16T08:33:17.794Z,19.65
2023-09-16T08:35:46.956Z,19.88
2023-09-16T08:38:25.566Z,19.84
2023-09-16T08:41:10.030Z,19.81
2023-09-16T08:43:50.122Z,19.96
2023-09-16T08:46:18.969Z,19.91
2023-09-16T08:48:47.181Z,19.74
2023-09-16T08:51:28.969Z,19.77
2023-09-16T08:54:26.155Z,19.97
2023-09-16T08:56:48.658Z,20.12
2023-09-16T08:59:41.521Z,19.98
2023-09-16T09:02:20.315Z,20.06
2023-09-16T09:04:47.605Z,20.15
2023-09-16T09:07:15.763Z,20.19
2023-09-16T09:09:52.069Z,20.18
2023-09-16T09:12:19.153Z,20.07
2023-09-16T09:14:49.655Z,20.22
2023-09-16T09:17:20.065Z,20.20
2023-09-16T09:19:46.965Z,20.29
2023-09-16T09:22:14.250Z,20.52
2023-09-16T09:24:51.650Z,20.59
2023-09-16T09:27:18.416Z,20.48
2023-09-16T09:29:45.150Z,20.53
2023-09-16T09:32:12.835Z,20.54
2023-09-16T09:34:47.330Z,20.51
2023-09-16T09:37:17.786Z,20.69
2023-09-16T09:40:04.880Z,20.68
2023-09-16T09:42:34.509Z,20.60
2023-09-16T09:45:03.771Z,20.73
2023-09-16T09:47:31.235Z,20.79
2023-09-16T09:49:59.674Z,20.96
2023-09-16T09:52:34.081Z,21.10
2023-09-16T09:55:03.632Z,21.04
2023-09-16T09:57:35.299Z,21.23
2023-09-16T10:00:04.313Z,21.12
2023-09-16T10:02:46.611Z,20.92
2023-09-16T10:05:24.206Z,20.95
2023-09-16T10:07:54.822Z,21.09
2023-09-16T10:10:23.542Z,21.14
2023-09-16T10:12:57.714Z,21.26
2023-09-16T10:15:33.008Z,21.29
2023-09-16T10:18:05.846Z,21.39
2023-09-16T10:20:35.187Z,21.37
2023-09-16T10:23:02.013Z,21.44
2023-09-16T10:25:49.683Z,21.46
2023-09-16T10:28:25.619Z,21.42
2023-09-16T10:30:52.866Z,21.65
2023-09-16T10:34:11.423Z,21.51
2023-09-16T10:36:38.295Z,21.76
2023-09-16T10:39:05.594Z,21.58
2023-09-16T10:41:33.094Z,21.62
2023-09-16T10:44:19.163Z,21.72
2023-09-16T10:48:13.428Z,21.62
2023-09-16T10:50:43.074Z,21.48
2023-09-16T10:53:17.752Z,21.75
2023-09-16T10:59:27.900Z,22.06
2023-09-16T11:02:07.709Z,21.99
2023-09-16T11:04:40.896Z,22.02
2023-09-16T11:07:08.247Z,21.92
2023-09-16T11:09:49.802Z,22.11
2023-09-16T11:12:23.949Z,21.90
2023-09-16T11:14:54.816Z,21.93
2023-09-16T11:17:37.729Z,22.13
2023-09-16T11:20:34.935Z,21.97
2023-09-16T11:23:07.141Z,21.86
2023-09-16T11:25:35.741Z,22.18
2023-09-16T11:28:05.283Z,22.17
2023-09-16T11:30:48.967Z,22.22
2023-09-16T11:33:46.897Z,22.46
2023-09-16T11:36:22.633Z,22.53
2023-09-16T11:39:09.978Z,22.47
2023-09-16T11:41:37.349Z,22.60
2023-09-16T11:44:25.384Z,22.47
2023-09-16T11:47:01.450Z,22.42
2023-09-16T11:49:28.393Z,22.65
2023-09-16T11:51:59.337Z,22.55
2023-09-16T11:54:32.451Z,22.68
2023-09-16T11:56:59.522Z,22.64
2023-09-16T11:59:30.326Z,22.59
2023-09-16T12:02:22.318Z,22.77
2023-09-16T12:05:00.741Z,22.71
2023-09-16T12:08:55.629Z,22.56
2023-09-16T12:15:13.323Z,22.75
2023-09-16T12:26:08.237Z,22.44
2023-09-16T12:29:41.865Z,22.60
2023-09-16T12:32:12.462Z,22.58
2023-09-16T12:46:12.530Z,22.78
2023-09-16T12:48:49.166Z,22.66
2023-09-16T12:51:25.972Z,22.62
2023-09-16T12:54:54.494Z,22.78
2023-09-16T12:57:49.805Z,22.76
2023-09-16T13:00:21.708Z,22.70
2023-09-16T13:02:54.717Z,22.66
2023-09-16T13:05:39.493Z,22.65
2023-09-16T13:08:07.695Z,22.73
2023-09-16T13:10:45.250Z,22.57
2023-09-16T13:13:12.190Z,22.71
2023-09-16T13:15:47.707Z,22.84
2023-09-16T13:18:14.698Z,22.76
2023-09-16T13:20:41.722Z,22.77
2023-09-16T13:23:17.159Z,22.89
2023-09-16T13:25:43.902Z,22.74
2023-09-16T13:28:22.354Z,22.65
2023-09-16T13:30:51.291Z,22.64
2023-09-16T13:33:18.119Z,22.56
2023-09-16T13:35:45.938Z,22.48
2023-09-16T13:38:14.775Z,22.48
2023-09-16T13:40:49.119Z,22.54
2023-09-16T13:43:15.996Z,22.54
2023-09-16T13:45:42.856Z,22.69
2023-09-16T13:48:13.875Z,22.63
2023-09-16T13:50:45.604Z,22.41
2023-09-16T13:53:13.597Z,22.46
2023-09-16T13:55:40.707Z,22.52
2023-09-16T13:58:13.194Z,22.68
2023-09-16T14:00:40.273Z,22.72
2023-09-16T14:03:07.788Z,22.70
2023-09-16T14:05:48.292Z,22.79
2023-09-16T14:08:15.176Z,22.87
2023-09-16T14:10:42.060Z,22.80
2023-09-16T14:13:11.334Z,22.56
2023-09-16T14:15:39.992Z,22.49
2023-09-16T14:18:08.554Z,22.63
2023-09-16T14:20:43.092Z,22.43
2023-09-16T14:23:09.854Z,22.40
2023-09-16T14:25:36.590Z,22.22
2023-09-16T14:28:04.401Z,21.96
2023-09-16T14:30:33.097Z,22.12
2023-09-16T14:33:02.192Z,21.92
2023-09-16T14:35:33.341Z,21.82
2023-09-16T14:38:00.203Z,21.75
2023-09-16T14:40:26.961Z,21.60
2023-09-16T14:43:01.382Z,21.38
2023-09-16T14:45:28.279Z,21.38
2023-09-16T14:47:55.581Z,21.48
2023-09-16T14:50:24.831Z,21.39
2023-09-16T14:52:54.736Z,21.45
2023-09-16T14:55:21.698Z,21.55
2023-09-16T14:57:48.472Z,21.64
2023-09-16T15:00:26.833Z,21.59
2023-09-16T15:02:53.798Z,21.62
2023-09-16T15:05:33.853Z,21.61
2023-09-16T15:08:04.949Z,21.64
2023-09-16T15:10:42.540Z,21.58
2023-09-16T15:13:10.991Z,21.46
2023-09-16T15:15:37.742Z,21.38
2023-09-16T15:18:07.818Z,21.27
2023-09-16T15:20:34.499Z,21.24
2023-09-16T15:23:01.314Z,21.25
2023-09-16T15:25:28.169Z,21.21
2023-09-16T15:27:55.211Z,21.24
2023-09-16T15:30:32.035Z,21.23
2023-09-16T15:32:58.928Z,21.24
2023-09-16T15:35:25.618Z,21.20
2023-09-16T15:38:02.497Z,21.20
2023-09-16T15:40:29.303Z,21.12
2023-09-16T15:42:55.997Z,21.17
2023-09-16T15:45:32.652Z,21.04
2023-09-16T15:47:59.473Z,20.96
2023-09-16T15:50:26.318Z,20.89
2023-09-16T15:53:11.428Z,20.77
2023-09-16T15:55:47.646Z,20.71
2023-09-16T15:58:14.863Z,20.62
2023-09-16T16:00:53.134Z,20.58
2023-09-16T16:03:21.131Z,20.57
2023-09-16T16:05:57.483Z,20.48
2023-09-16T16:08:24.477Z,20.37
2023-09-16T16:10:56.043Z,20.21
2023-09-16T16:13:42.085Z,20.10
2023-09-16T16:16:15.971Z,20.12
2023-09-16T16:18:46.023Z,20.07
2023-09-16T16:21:22.740Z,20.05
2023-09-16T16:23:59.987Z,20.01
2023-09-16T16:26:33.711Z,19.90
2023-09-16T16:29:11.793Z,19.86
2023-09-16T16:31:55.674Z,19.81
2023-09-16T16:34:42.176Z,19.84
2023-09-16T16:37:09.079Z,19.87
2023-09-16T16:39:35.895Z,19.77
2023-09-16T16:42:10.032Z,19.79
2023-09-16T16:44:39.018Z,19.64
2023-09-16T16:47:05.911Z,19.61
2023-09-16T16:49:32.744Z,19.54
2023-09-16T16:52:06.866Z,19.50
2023-09-16T16:54:34.195Z,19.54
2023-09-16T16:57:01.374Z,19.52
2023-09-16T16:59:28.182Z,19.45
2023-09-16T17:02:10.195Z,19.49
2023-09-16T17:04:42.166Z,19.52
2023-09-16T17:07:09.182Z,19.53
2023-09-16T17:09:38.422Z,19.44
2023-09-16T17:12:05.344Z,19.35
2023-09-16T17:14:32.054Z,19.27
2023-09-16T17:17:01.931Z,19.15
2023-09-16T17:19:36.170Z,19.03
2023-09-16T17:22:10.614Z,19.12
2023-09-16T17:24:55.457Z,18.99
2023-09-16T17:27:22.322Z,18.89
2023-09-16T17:29:49.246Z,18.75
2023-09-16T17:32:17.193Z,18.65
2023-09-16T17:34:49.331Z,18.49
2023-09-16T17:37:16.222Z,18.46
2023-09-16T17:39:55.637Z,18.40
2023-09-16T17:42:25.897Z,18.31
2023-09-16T17:47:49.306Z,18.19
2023-09-16T17:50:16.291Z,18.11
2023-09-16T17:52:46.181Z,18.21
2023-09-16T17:55:20.998Z,18.26
2023-09-16T17:58:02.739Z,18.40
2023-09-16T18:00:29.665Z,18.26
2023-09-16T18:02:56.565Z,18.29
2023-09-16T18:05:23.756Z,18.37
2023-09-16T18:07:50.712Z,18.20
2023-09-16T18:10:22.368Z,18.16
2023-09-16T18:12:49.575Z,18.14
2023-09-16T18:15:16.525Z,18.04
2023-09-16T18:18:04.799Z,17.87
2023-09-16T18:20:36.098Z,17.76
2023-09-16T18:23:05.105Z,17.66
2023-09-16T18:25:32.723Z,17.62
2023-09-16T18:28:07.177Z,17.50
2023-09-16T18:30:34.068Z,17.49
2023-09-16T18:33:05.004Z,17.43
2023-09-16T18:35:35.565Z,17.39
2023-09-16T18:38:17.744Z,17.31
2023-09-16T18:40:46.666Z,17.34
2023-09-16T18:43:13.550Z,17.36
2023-09-16T18:45:40.447Z,17.47
2023-09-16T18:48:07.496Z,17.59
2023-09-16T18:50:37.435Z,17.60
2023-09-16T18:53:04.848Z,17.80
2023-09-16T18:55:31.824Z,17.85
2023-09-16T18:57:58.784Z,17.92
2023-09-16T19:00:25.566Z,18.00
2023-09-16T19:02:55.896Z,17.91
2023-09-16T19:05:22.757Z,17.96
2023-09-16T19:07:50.450Z,18.04
2023-09-16T19:10:18.387Z,17.99
2023-09-16T19:12:46.309Z,17.88
2023-09-16T19:15:16.398Z,17.81
2023-09-16T19:17:46.586Z,17.73
2023-09-16T19:20:15.874Z,17.66
2023-09-16T19:22:45.314Z,17.58
2023-09-16T19:25:15.260Z,17.52
2023-09-16T19:27:45.890Z,17.54
2023-09-16T19:30:16.031Z,17.56
2023-09-16T19:32:49.054Z,17.65
2023-09-16T19:35:17.114Z,17.75
2023-09-16T19:37:46.670Z,17.80
2023-09-16T19:40:16.586Z,17.79
2023-09-16T19:42:47.029Z,17.68
2023-09-16T19:45:19.421Z,17.68
2023-09-16T19:47:46.393Z,17.67
2023-09-16T19:50:16.960Z,17.67
2023-09-16T19:52:51.063Z,17.67
2023-09-16T19:55:18.041Z,17.66
2023-09-16T19:57:45.028Z,17.63
2023-09-16T20:00:21.623Z,17.60
2023-09-16T20:02:48.942Z,17.57
2023-09-16T20:05:16.141Z,17.53
2023-09-16T20:07:53.174Z,17.54
2023-09-16T20:10:20.184Z,17.51
2023-09-16T20:12:47.015Z,17.59
2023-09-16T20:15:19.078Z,17.53
2023-09-16T20:17:45.976Z,17.51
2023-09-16T20:20:15.852Z,17.53
2023-09-16T20:22:49.723Z,17.59
2023-09-16T20:25:17.965Z,17.69
2023-09-16T20:27:47.403Z,17.74
2023-09-16T20:30:14.336Z,17.67
2023-09-16T20:32:46.733Z,17.60
2023-09-16T20:35:16.164Z,17.52
2023-09-16T20:37:52.734Z,17.49
2023-09-16T20:40:19.817Z,17.41
2023-09-16T20:42:46.759Z,17.33
2023-09-16T20:45:16.552Z,17.29
2023-09-16T20:47:46.467Z,17.28
2023-09-16T20:50:21.132Z,17.30
2023-09-16T20:52:50.474Z,17.24
2023-09-16T20:55:20.258Z,17.22
2023-09-16T20:57:48.650Z,17.28
2023-09-16T21:00:15.653Z,17.27
2023-09-16T21:02:49.858Z,17.24
2023-09-16T21:05:16.945Z,17.21
2023-09-16T21:07:44.249Z,17.22
2023-09-16T21:10:17.005Z,17.20
2023-09-16T21:12:46.356Z,17.19
2023-09-16T21:15:21.192Z,17.15
2023-09-16T21:17:47.995Z,17.18
2023-09-16T21:20:17.417Z,17.16
2023-09-16T21:22:46.705Z,17.13
2023-09-16T21:25:20.807Z,17.14
2023-09-16T21:27:47.606Z,17.09
2023-09-16T21:30:22.134Z,17.05
2023-09-16T21:32:52.460Z,16.98
2023-09-16T21:35:20.442Z,16.93
2023-09-16T21:37:47.249Z,16.95
2023-09-16T21:40:21.213Z,16.93
2023-09-16T21:42:48.088Z,16.87
2023-09-16T21:45:17.923Z,16.84
2023-09-16T21:47:47.952Z,16.86
2023-09-16T21:50:18.192Z,16.87
2023-09-16T21:52:48.132Z,16.84
2023-09-16T21:55:17.903Z,16.86
2023-09-16T21:57:53.682Z,16.91
2023-09-16T22:00:36.014Z,16.90
2023-09-16T22:03:04.409Z,17.13
2023-09-16T22:05:38.318Z,17.20
2023-09-16T22:08:05.167Z,17.16
2023-09-16T22:10:35.336Z,17.08
2023-09-16T22:13:08.348Z,17.10
2023-09-16T22:15:37.663Z,17.04
2023-09-16T22:18:04.951Z,17.00
2023-09-16T22:20:32.019Z,16.88
2023-09-16T22:22:59.185Z,16.69
2023-09-16T22:25:26.063Z,16.63
2023-09-16T22:27:56.522Z,16.83
2023-09-16T22:30:25.713Z,16.81
2023-09-16T22:32:52.570Z,16.83
2023-09-16T22:35:26.639Z,16.84
2023-09-16T22:37:53.354Z,16.76
2023-09-16T22:40:20.195Z,16.74
2023-09-16T22:42:49.242Z,16.66
2023-09-16T22:45:16.069Z,16.57
2023-09-16T22:47:51.877Z,16.54
2023-09-16T22:50:18.715Z,16.49
2023-09-16T22:52:48.328Z,16.55
2023-09-16T22:55:17.820Z,16.63
2023-09-16T22:57:56.567Z,16.61
2023-09-16T23:00:25.725Z,16.68
2023-09-16T23:02:52.805Z,16.80
2023-09-16T23:05:22.254Z,16.89
2023-09-16T23:07:49.176Z,16.96
2023-09-16T23:10:19.020Z,16.97
2023-09-16T23:12:48.848Z,16.88
2023-09-16T23:15:18.799Z,16.92
2023-09-16T23:17:48.275Z,16.99
2023-09-16T23:20:18.056Z,16.98
2023-09-16T23:22:47.680Z,16.93
2023-09-16T23:25:24.087Z,16.86
2023-09-16T23:27:50.903Z,16.74
2023-09-16T23:30:17.992Z,16.83
2023-09-16T23:32:52.199Z,16.75
2023-09-16T23:35:18.939Z,16.65
2023-09-16T23:37:48.674Z,16.63
2023-09-16T23:40:18.591Z,16.55
2023-09-16T23:42:47.911Z,16.64
2023-09-16T23:45:17.433Z,16.71
2023-09-16T23:47:51.450Z,16.68
2023-09-16T23:50:18.259Z,16.74
2023-09-16T23:52:47.961Z,16.79
2023-09-16T23:55:21.484Z,16.85
2023-09-16T23:57:48.331Z,16.82
